Alice, North Dakota
Current Conditions -  °F | °C
As of 9:15 PM on Tuesday 25 Nov 2014 (Local Time) from KBAC Reporting Station
Light Snow Light Snow  
Wind Chill: -15°   Ceiling: 3100
Heat Index: -7°   Visibility: 3mi
Dew Point: -7°   Wind: 15mph
Humidity: 100%   Direction: 50°NE
Pressure: 29.95"   Gusts: 24mph
Location:  46.7681°N, 97.6777°W
Report Text: KBAC 260315Z AUTO 05013G21KT 3SM -SN FEW008 BKN031 M07/M07 A2995 RMK AO2 P0001
Loading
Personal Weather Stations






























Interactive Weather Map New forecast layout! Learn more

10-Day Weather Forecast

Advertisements
Track Severe Weather on mobile